sensor_id;sensor_type;location;lat;lon;timestamp;P1;durP1;ratioP1;P2;durP2;ratioP2
40997;SDS011;26740;45.944;12.480;2022-11-10T00:00:57;48.25;;;28.55;;
40997;SDS011;26740;45.944;12.480;2022-11-10T00:05:53;48.58;;;27.83;;
40997;SDS011;26740;45.944;12.480;2022-11-10T00:08:20;44.83;;;27.00;;
40997;SDS011;26740;45.944;12.480;2022-11-10T00:10:46;47.33;;;29.73;;
40997;SDS011;26740;45.944;12.480;2022-11-10T00:13:25;46.15;;;28.23;;
40997;SDS011;26740;45.944;12.480;2022-11-10T00:15:52;42.28;;;25.95;;
40997;SDS011;26740;45.944;12.480;2022-11-10T00:18:37;43.38;;;25.98;;
40997;SDS011;26740;45.944;12.480;2022-11-10T00:21:06;41.28;;;26.25;;
40997;SDS011;26740;45.944;12.480;2022-11-10T00:23:33;40.60;;;26.13;;
40997;SDS011;26740;45.944;12.480;2022-11-10T00:26:00;42.95;;;25.27;;
40997;SDS011;26740;45.944;12.480;2022-11-10T00:28:28;43.60;;;26.92;;
40997;SDS011;26740;45.944;12.480;2022-11-10T00:30:55;46.47;;;26.15;;
40997;SDS011;26740;45.944;12.480;2022-11-10T00:33:20;45.25;;;26.85;;
40997;SDS011;26740;45.944;12.480;2022-11-10T00:35:46;45.30;;;26.85;;
40997;SDS011;26740;45.944;12.480;2022-11-10T00:38:12;41.88;;;27.05;;
40997;SDS011;26740;45.944;12.480;2022-11-10T00:40:37;41.42;;;25.92;;
40997;SDS011;26740;45.944;12.480;2022-11-10T00:43:03;46.10;;;26.85;;
40997;SDS011;26740;45.944;12.480;2022-11-10T00:45:29;41.17;;;26.02;;
40997;SDS011;26740;45.944;12.480;2022-11-10T00:47:54;48.47;;;27.52;;
40997;SDS011;26740;45.944;12.480;2022-11-10T00:50:20;46.45;;;26.15;;
40997;SDS011;26740;45.944;12.480;2022-11-10T00:52:46;42.45;;;25.42;;
40997;SDS011;26740;45.944;12.480;2022-11-10T00:55:12;39.90;;;26.40;;
40997;SDS011;26740;45.944;12.480;2022-11-10T00:57:37;45.83;;;24.83;;
40997;SDS011;26740;45.944;12.480;2022-11-10T01:00:03;39.13;;;25.58;;
40997;SDS011;26740;45.944;12.480;2022-11-10T01:02:29;39.17;;;25.25;;
40997;SDS011;26740;45.944;12.480;2022-11-10T01:04:55;39.22;;;23.90;;
40997;SDS011;26740;45.944;12.480;2022-11-10T01:07:21;39.88;;;25.27;;
40997;SDS011;26740;45.944;12.480;2022-11-10T01:09:46;42.67;;;25.08;;
40997;SDS011;26740;45.944;12.480;2022-11-10T01:12:12;39.80;;;24.00;;
40997;SDS011;26740;45.944;12.480;2022-11-10T01:14:38;40.00;;;23.42;;
40997;SDS011;26740;45.944;12.480;2022-11-10T01:17:04;42.42;;;24.15;;
40997;SDS011;26740;45.944;12.480;2022-11-10T01:19:29;39.67;;;25.05;;
40997;SDS011;26740;45.944;12.480;2022-11-10T01:21:55;43.17;;;23.42;;
40997;SDS011;26740;45.944;12.480;2022-11-10T01:24:22;43.83;;;24.52;;
40997;SDS011;26740;45.944;12.480;2022-11-10T01:26:48;38.83;;;24.17;;
40997;SDS011;26740;45.944;12.480;2022-11-10T01:29:13;43.65;;;26.65;;
40997;SDS011;26740;45.944;12.480;2022-11-10T01:31:39;42.80;;;27.30;;
40997;SDS011;26740;45.944;12.480;2022-11-10T01:34:05;45.38;;;26.75;;
40997;SDS011;26740;45.944;12.480;2022-11-10T01:36:31;43.15;;;26.73;;
40997;SDS011;26740;45.944;12.480;2022-11-10T01:38:56;44.03;;;26.83;;
40997;SDS011;26740;45.944;12.480;2022-11-10T01:41:22;41.50;;;26.52;;
40997;SDS011;26740;45.944;12.480;2022-11-10T01:43:48;42.58;;;27.13;;
40997;SDS011;26740;45.944;12.480;2022-11-10T01:46:14;45.78;;;27.45;;
40997;SDS011;26740;45.944;12.480;2022-11-10T01:48:43;44.42;;;26.50;;
40997;SDS011;26740;45.944;12.480;2022-11-10T01:53:53;46.08;;;29.10;;
40997;SDS011;26740;45.944;12.480;2022-11-10T01:56:24;42.22;;;27.20;;
40997;SDS011;26740;45.944;12.480;2022-11-10T01:58:53;42.53;;;27.13;;
40997;SDS011;26740;45.944;12.480;2022-11-10T02:01:23;46.78;;;28.50;;
40997;SDS011;26740;45.944;12.480;2022-11-10T02:03:51;41.00;;;26.17;;
40997;SDS011;26740;45.944;12.480;2022-11-10T02:08:48;42.08;;;24.77;;
40997;SDS011;26740;45.944;12.480;2022-11-10T02:11:15;37.80;;;25.25;;
40997;SDS011;26740;45.944;12.480;2022-11-10T02:13:41;41.33;;;24.38;;
40997;SDS011;26740;45.944;12.480;2022-11-10T02:16:07;43.08;;;25.08;;
40997;SDS011;26740;45.944;12.480;2022-11-10T02:18:35;41.03;;;24.60;;
40997;SDS011;26740;45.944;12.480;2022-11-10T02:21:03;38.75;;;25.35;;
40997;SDS011;26740;45.944;12.480;2022-11-10T02:25:56;41.03;;;25.05;;
40997;SDS011;26740;45.944;12.480;2022-11-10T02:28:22;38.85;;;24.63;;
40997;SDS011;26740;45.944;12.480;2022-11-10T02:30:49;39.72;;;25.35;;
40997;SDS011;26740;45.944;12.480;2022-11-10T02:33:16;38.03;;;25.30;;
40997;SDS011;26740;45.944;12.480;2022-11-10T02:35:42;42.78;;;24.35;;
40997;SDS011;26740;45.944;12.480;2022-11-10T02:38:12;38.40;;;24.33;;
40997;SDS011;26740;45.944;12.480;2022-11-10T02:40:39;42.63;;;26.30;;
40997;SDS011;26740;45.944;12.480;2022-11-10T02:43:05;42.53;;;26.05;;
40997;SDS011;26740;45.944;12.480;2022-11-10T02:50:32;36.20;;;22.85;;
40997;SDS011;26740;45.944;12.480;2022-11-10T02:52:57;40.25;;;25.30;;
40997;SDS011;26740;45.944;12.480;2022-11-10T02:55:23;38.97;;;23.45;;
40997;SDS011;26740;45.944;12.480;2022-11-10T02:57:48;43.38;;;25.17;;
40997;SDS011;26740;45.944;12.480;2022-11-10T03:00:14;40.08;;;25.67;;
40997;SDS011;26740;45.944;12.480;2022-11-10T03:02:40;43.33;;;25.27;;
40997;SDS011;26740;45.944;12.480;2022-11-10T03:05:05;40.72;;;26.38;;
40997;SDS011;26740;45.944;12.480;2022-11-10T03:07:31;35.53;;;22.63;;
40997;SDS011;26740;45.944;12.480;2022-11-10T03:09:57;39.35;;;24.50;;
40997;SDS011;26740;45.944;12.480;2022-11-10T03:12:22;36.50;;;23.75;;
40997;SDS011;26740;45.944;12.480;2022-11-10T03:14:48;42.15;;;24.95;;
40997;SDS011;26740;45.944;12.480;2022-11-10T03:17:14;37.47;;;24.33;;
40997;SDS011;26740;45.944;12.480;2022-11-10T03:19:39;38.85;;;24.02;;
40997;SDS011;26740;45.944;12.480;2022-11-10T03:22:05;38.65;;;24.38;;
40997;SDS011;26740;45.944;12.480;2022-11-10T03:24:30;45.15;;;25.50;;
40997;SDS011;26740;45.944;12.480;2022-11-10T03:26:56;36.20;;;21.20;;
40997;SDS011;26740;45.944;12.480;2022-11-10T03:29:22;35.78;;;22.95;;
40997;SDS011;26740;45.944;12.480;2022-11-10T03:31:47;37.28;;;23.55;;
40997;SDS011;26740;45.944;12.480;2022-11-10T03:34:13;43.90;;;24.15;;
40997;SDS011;26740;45.944;12.480;2022-11-10T03:36:38;34.45;;;21.42;;
40997;SDS011;26740;45.944;12.480;2022-11-10T03:39:04;39.90;;;22.17;;
40997;SDS011;26740;45.944;12.480;2022-11-10T03:41:30;33.53;;;21.67;;
40997;SDS011;26740;45.944;12.480;2022-11-10T03:43:55;35.80;;;23.95;;
40997;SDS011;26740;45.944;12.480;2022-11-10T03:46:21;37.17;;;22.92;;
40997;SDS011;26740;45.944;12.480;2022-11-10T03:48:47;43.25;;;24.55;;
40997;SDS011;26740;45.944;12.480;2022-11-10T03:51:12;39.45;;;22.80;;
40997;SDS011;26740;45.944;12.480;2022-11-10T03:53:38;36.53;;;23.05;;
40997;SDS011;26740;45.944;12.480;2022-11-10T03:56:04;37.90;;;24.65;;
40997;SDS011;26740;45.944;12.480;2022-11-10T03:58:31;35.63;;;22.60;;
40997;SDS011;26740;45.944;12.480;2022-11-10T04:00:56;39.67;;;23.35;;
40997;SDS011;26740;45.944;12.480;2022-11-10T04:03:22;38.58;;;23.58;;
40997;SDS011;26740;45.944;12.480;2022-11-10T04:05:48;38.28;;;21.85;;
40997;SDS011;26740;45.944;12.480;2022-11-10T04:08:33;35.20;;;21.60;;
40997;SDS011;26740;45.944;12.480;2022-11-10T04:11:17;34.42;;;20.95;;
40997;SDS011;26740;45.944;12.480;2022-11-10T04:14:02;31.48;;;20.00;;
40997;SDS011;26740;45.944;12.480;2022-11-10T04:16:46;26.65;;;18.58;;
40997;SDS011;26740;45.944;12.480;2022-11-10T04:19:12;29.90;;;21.33;;
40997;SDS011;26740;45.944;12.480;2022-11-10T04:21:38;36.83;;;23.42;;
40997;SDS011;26740;45.944;12.480;2022-11-10T04:24:04;34.90;;;20.85;;
40997;SDS011;26740;45.944;12.480;2022-11-10T04:26:30;33.30;;;21.90;;
40997;SDS011;26740;45.944;12.480;2022-11-10T04:28:58;44.35;;;24.88;;
40997;SDS011;26740;45.944;12.480;2022-11-10T04:31:26;41.33;;;24.50;;
40997;SDS011;26740;45.944;12.480;2022-11-10T04:33:54;33.80;;;21.42;;
40997;SDS011;26740;45.944;12.480;2022-11-10T04:36:21;39.63;;;24.00;;
40997;SDS011;26740;45.944;12.480;2022-11-10T04:38:54;40.65;;;24.98;;
40997;SDS011;26740;45.944;12.480;2022-11-10T04:41:21;37.80;;;23.73;;
40997;SDS011;26740;45.944;12.480;2022-11-10T04:43:47;40.28;;;24.50;;
40997;SDS011;26740;45.944;12.480;2022-11-10T04:46:23;39.03;;;24.08;;
40997;SDS011;26740;45.944;12.480;2022-11-10T04:48:55;35.90;;;22.75;;
40997;SDS011;26740;45.944;12.480;2022-11-10T04:51:22;31.33;;;21.52;;
40997;SDS011;26740;45.944;12.480;2022-11-10T04:53:50;35.38;;;21.55;;
40997;SDS011;26740;45.944;12.480;2022-11-10T04:56:16;35.35;;;22.67;;
40997;SDS011;26740;45.944;12.480;2022-11-10T04:58:43;34.30;;;22.92;;
40997;SDS011;26740;45.944;12.480;2022-11-10T05:01:10;34.13;;;22.20;;
40997;SDS011;26740;45.944;12.480;2022-11-10T05:03:40;36.08;;;22.42;;
40997;SDS011;26740;45.944;12.480;2022-11-10T05:06:06;37.97;;;22.75;;
40997;SDS011;26740;45.944;12.480;2022-11-10T05:08:32;37.53;;;24.25;;
40997;SDS011;26740;45.944;12.480;2022-11-10T05:10:58;35.65;;;23.17;;
40997;SDS011;26740;45.944;12.480;2022-11-10T05:13:24;37.10;;;22.48;;
40997;SDS011;26740;45.944;12.480;2022-11-10T05:15:49;37.00;;;22.08;;
40997;SDS011;26740;45.944;12.480;2022-11-10T05:18:16;28.45;;;17.10;;
40997;SDS011;26740;45.944;12.480;2022-11-10T05:20:42;28.63;;;14.88;;
40997;SDS011;26740;45.944;12.480;2022-11-10T05:23:07;26.73;;;14.52;;
40997;SDS011;26740;45.944;12.480;2022-11-10T05:25:52;32.13;;;21.83;;
40997;SDS011;26740;45.944;12.480;2022-11-10T05:28:17;31.50;;;21.17;;
40997;SDS011;26740;45.944;12.480;2022-11-10T05:30:43;37.33;;;21.15;;
40997;SDS011;26740;45.944;12.480;2022-11-10T05:33:09;35.35;;;22.83;;
40997;SDS011;26740;45.944;12.480;2022-11-10T05:35:35;36.88;;;22.60;;
40997;SDS011;26740;45.944;12.480;2022-11-10T05:38:01;37.67;;;22.60;;
40997;SDS011;26740;45.944;12.480;2022-11-10T05:40:28;35.08;;;22.70;;
40997;SDS011;26740;45.944;12.480;2022-11-10T05:42:54;34.88;;;22.58;;
40997;SDS011;26740;45.944;12.480;2022-11-10T05:45:20;31.75;;;22.45;;
40997;SDS011;26740;45.944;12.480;2022-11-10T05:47:47;37.38;;;24.15;;
40997;SDS011;26740;45.944;12.480;2022-11-10T05:50:13;41.97;;;25.67;;
40997;SDS011;26740;45.944;12.480;2022-11-10T05:52:44;35.47;;;21.45;;
40997;SDS011;26740;45.944;12.480;2022-11-10T05:55:11;34.03;;;21.75;;
40997;SDS011;26740;45.944;12.480;2022-11-10T05:57:40;38.03;;;23.00;;
40997;SDS011;26740;45.944;12.480;2022-11-10T06:00:08;37.97;;;23.47;;
40997;SDS011;26740;45.944;12.480;2022-11-10T06:02:34;39.80;;;23.30;;
40997;SDS011;26740;45.944;12.480;2022-11-10T06:05:00;36.45;;;22.05;;
40997;SDS011;26740;45.944;12.480;2022-11-10T06:07:26;34.47;;;22.60;;
40997;SDS011;26740;45.944;12.480;2022-11-10T06:09:51;36.00;;;22.00;;
40997;SDS011;26740;45.944;12.480;2022-11-10T06:12:17;39.60;;;22.58;;
40997;SDS011;26740;45.944;12.480;2022-11-10T06:14:43;38.30;;;22.67;;
40997;SDS011;26740;45.944;12.480;2022-11-10T06:17:08;33.60;;;21.38;;
40997;SDS011;26740;45.944;12.480;2022-11-10T06:19:34;35.53;;;23.17;;
40997;SDS011;26740;45.944;12.480;2022-11-10T06:22:00;32.13;;;21.48;;
40997;SDS011;26740;45.944;12.480;2022-11-10T06:24:25;36.10;;;23.58;;
40997;SDS011;26740;45.944;12.480;2022-11-10T06:26:51;38.47;;;25.77;;
40997;SDS011;26740;45.944;12.480;2022-11-10T06:29:16;41.53;;;26.25;;
40997;SDS011;26740;45.944;12.480;2022-11-10T06:31:42;47.90;;;27.25;;
40997;SDS011;26740;45.944;12.480;2022-11-10T06:34:08;46.80;;;27.98;;
40997;SDS011;26740;45.944;12.480;2022-11-10T06:36:33;42.83;;;25.85;;
40997;SDS011;26740;45.944;12.480;2022-11-10T06:38:59;41.33;;;25.55;;
40997;SDS011;26740;45.944;12.480;2022-11-10T06:41:25;35.88;;;22.65;;
40997;SDS011;26740;45.944;12.480;2022-11-10T06:43:50;40.22;;;24.27;;
40997;SDS011;26740;45.944;12.480;2022-11-10T06:46:16;37.45;;;24.38;;
40997;SDS011;26740;45.944;12.480;2022-11-10T06:48:41;34.55;;;21.85;;
40997;SDS011;26740;45.944;12.480;2022-11-10T06:51:07;33.05;;;22.00;;
40997;SDS011;26740;45.944;12.480;2022-11-10T06:53:32;33.75;;;20.42;;
40997;SDS011;26740;45.944;12.480;2022-11-10T06:55:58;30.75;;;19.90;;
40997;SDS011;26740;45.944;12.480;2022-11-10T06:58:24;34.60;;;20.08;;
40997;SDS011;26740;45.944;12.480;2022-11-10T07:00:49;29.75;;;18.92;;
40997;SDS011;26740;45.944;12.480;2022-11-10T07:03:15;31.10;;;19.25;;
40997;SDS011;26740;45.944;12.480;2022-11-10T07:05:41;24.95;;;15.98;;
40997;SDS011;26740;45.944;12.480;2022-11-10T07:08:11;28.67;;;17.88;;
40997;SDS011;26740;45.944;12.480;2022-11-10T07:10:40;29.60;;;16.70;;
40997;SDS011;26740;45.944;12.480;2022-11-10T07:13:08;28.08;;;17.45;;
40997;SDS011;26740;45.944;12.480;2022-11-10T07:15:34;29.98;;;18.92;;
40997;SDS011;26740;45.944;12.480;2022-11-10T07:18:00;30.02;;;18.02;;
40997;SDS011;26740;45.944;12.480;2022-11-10T07:20:32;23.88;;;15.75;;
40997;SDS011;26740;45.944;12.480;2022-11-10T07:23:01;24.50;;;15.02;;
40997;SDS011;26740;45.944;12.480;2022-11-10T07:25:28;20.02;;;13.65;;
40997;SDS011;26740;45.944;12.480;2022-11-10T07:27:56;25.23;;;15.27;;
40997;SDS011;26740;45.944;12.480;2022-11-10T07:30:23;22.52;;;14.45;;
40997;SDS011;26740;45.944;12.480;2022-11-10T07:33:00;22.50;;;14.50;;
40997;SDS011;26740;45.944;12.480;2022-11-10T07:35:28;22.95;;;14.65;;
40997;SDS011;26740;45.944;12.480;2022-11-10T07:37:55;27.02;;;14.35;;
40997;SDS011;26740;45.944;12.480;2022-11-10T07:40:22;23.88;;;15.18;;
40997;SDS011;26740;45.944;12.480;2022-11-10T07:42:48;22.05;;;15.20;;
40997;SDS011;26740;45.944;12.480;2022-11-10T07:45:14;24.10;;;15.30;;
40997;SDS011;26740;45.944;12.480;2022-11-10T07:47:40;24.10;;;15.93;;
40997;SDS011;26740;45.944;12.480;2022-11-10T07:50:06;22.58;;;14.93;;
40997;SDS011;26740;45.944;12.480;2022-11-10T07:52:32;24.55;;;15.38;;
40997;SDS011;26740;45.944;12.480;2022-11-10T07:54:58;21.90;;;14.00;;
40997;SDS011;26740;45.944;12.480;2022-11-10T07:57:24;22.05;;;15.07;;
40997;SDS011;26740;45.944;12.480;2022-11-10T07:59:50;24.02;;;15.32;;
40997;SDS011;26740;45.944;12.480;2022-11-10T08:02:15;25.02;;;16.13;;
40997;SDS011;26740;45.944;12.480;2022-11-10T08:04:41;24.60;;;16.30;;
40997;SDS011;26740;45.944;12.480;2022-11-10T08:07:07;23.52;;;14.90;;
40997;SDS011;26740;45.944;12.480;2022-11-10T08:09:33;26.70;;;16.35;;
40997;SDS011;26740;45.944;12.480;2022-11-10T08:11:58;29.38;;;15.90;;
40997;SDS011;26740;45.944;12.480;2022-11-10T08:14:24;22.92;;;15.38;;
40997;SDS011;26740;45.944;12.480;2022-11-10T08:16:50;20.85;;;15.05;;
40997;SDS011;26740;45.944;12.480;2022-11-10T08:19:16;26.58;;;16.05;;
40997;SDS011;26740;45.944;12.480;2022-11-10T08:21:41;27.73;;;17.30;;
40997;SDS011;26740;45.944;12.480;2022-11-10T08:24:07;26.58;;;16.90;;
40997;SDS011;26740;45.944;12.480;2022-11-10T08:26:33;25.40;;;17.20;;
40997;SDS011;26740;45.944;12.480;2022-11-10T08:28:59;27.05;;;17.63;;
40997;SDS011;26740;45.944;12.480;2022-11-10T08:31:24;32.10;;;18.00;;
40997;SDS011;26740;45.944;12.480;2022-11-10T08:33:50;29.67;;;17.90;;
40997;SDS011;26740;45.944;12.480;2022-11-10T08:36:16;30.30;;;17.40;;
40997;SDS011;26740;45.944;12.480;2022-11-10T08:38:41;27.70;;;18.63;;
40997;SDS011;26740;45.944;12.480;2022-11-10T08:41:07;30.10;;;18.58;;
40997;SDS011;26740;45.944;12.480;2022-11-10T08:43:32;31.73;;;18.25;;
40997;SDS011;26740;45.944;12.480;2022-11-10T08:45:58;29.92;;;17.88;;
40997;SDS011;26740;45.944;12.480;2022-11-10T08:48:25;29.75;;;17.00;;
40997;SDS011;26740;45.944;12.480;2022-11-10T08:50:51;24.60;;;16.30;;
40997;SDS011;26740;45.944;12.480;2022-11-10T08:53:19;30.25;;;19.73;;
40997;SDS011;26740;45.944;12.480;2022-11-10T08:55:47;26.17;;;16.65;;
40997;SDS011;26740;45.944;12.480;2022-11-10T08:58:21;29.75;;;17.42;;
40997;SDS011;26740;45.944;12.480;2022-11-10T09:00:48;29.42;;;17.27;;
40997;SDS011;26740;45.944;12.480;2022-11-10T09:03:16;22.73;;;15.90;;
40997;SDS011;26740;45.944;12.480;2022-11-10T09:05:47;26.48;;;16.95;;
40997;SDS011;26740;45.944;12.480;2022-11-10T09:08:14;28.35;;;17.80;;
40997;SDS011;26740;45.944;12.480;2022-11-10T09:10:42;29.45;;;18.75;;
40997;SDS011;26740;45.944;12.480;2022-11-10T09:13:09;25.13;;;17.30;;
40997;SDS011;26740;45.944;12.480;2022-11-10T09:15:36;28.95;;;18.38;;
40997;SDS011;26740;45.944;12.480;2022-11-10T09:18:03;25.63;;;15.88;;
40997;SDS011;26740;45.944;12.480;2022-11-10T09:20:31;30.67;;;17.27;;
40997;SDS011;26740;45.944;12.480;2022-11-10T09:23:05;26.38;;;15.70;;
40997;SDS011;26740;45.944;12.480;2022-11-10T09:25:41;26.25;;;17.95;;
40997;SDS011;26740;45.944;12.480;2022-11-10T09:28:13;23.65;;;17.25;;
40997;SDS011;26740;45.944;12.480;2022-11-10T09:30:41;30.25;;;19.63;;
40997;SDS011;26740;45.944;12.480;2022-11-10T09:33:09;26.75;;;17.35;;
40997;SDS011;26740;45.944;12.480;2022-11-10T09:35:35;28.10;;;19.08;;
40997;SDS011;26740;45.944;12.480;2022-11-10T09:38:00;29.02;;;18.52;;
40997;SDS011;26740;45.944;12.480;2022-11-10T09:42:55;30.75;;;18.17;;
40997;SDS011;26740;45.944;12.480;2022-11-10T09:45:31;35.08;;;21.88;;
40997;SDS011;26740;45.944;12.480;2022-11-10T09:48:14;29.27;;;20.20;;
40997;SDS011;26740;45.944;12.480;2022-11-10T09:50:51;32.58;;;20.10;;
40997;SDS011;26740;45.944;12.480;2022-11-10T09:53:22;24.70;;;14.10;;
40997;SDS011;26740;45.944;12.480;2022-11-10T09:55:56;28.50;;;19.33;;
40997;SDS011;26740;45.944;12.480;2022-11-10T09:58:26;26.80;;;18.40;;
40997;SDS011;26740;45.944;12.480;2022-11-10T10:01:44;24.77;;;17.00;;
40997;SDS011;26740;45.944;12.480;2022-11-10T10:04:26;23.63;;;15.95;;
40997;SDS011;26740;45.944;12.480;2022-11-10T10:07:03;23.85;;;16.50;;
40997;SDS011;26740;45.944;12.480;2022-11-10T10:09:44;24.73;;;15.48;;
40997;SDS011;26740;45.944;12.480;2022-11-10T10:20:41;19.60;;;13.68;;
40997;SDS011;26740;45.944;12.480;2022-11-10T10:23:37;17.30;;;12.32;;
40997;SDS011;26740;45.944;12.480;2022-11-10T10:26:13;17.75;;;11.55;;
40997;SDS011;26740;45.944;12.480;2022-11-10T10:28:45;19.23;;;11.38;;
40997;SDS011;26740;45.944;12.480;2022-11-10T10:31:20;17.25;;;11.48;;
40997;SDS011;26740;45.944;12.480;2022-11-10T10:33:49;15.98;;;11.38;;
40997;SDS011;26740;45.944;12.480;2022-11-10T10:36:22;16.38;;;11.88;;
40997;SDS011;26740;45.944;12.480;2022-11-10T10:38:53;15.32;;;11.18;;
40997;SDS011;26740;45.944;12.480;2022-11-10T10:41:32;13.43;;;9.82;;
40997;SDS011;26740;45.944;12.480;2022-11-10T10:44:01;12.70;;;8.32;;
40997;SDS011;26740;45.944;12.480;2022-11-10T10:46:42;9.52;;;6.35;;
40997;SDS011;26740;45.944;12.480;2022-11-10T10:51:58;8.52;;;6.60;;
40997;SDS011;26740;45.944;12.480;2022-11-10T10:54:36;9.48;;;5.95;;
40997;SDS011;26740;45.944;12.480;2022-11-10T10:59:49;7.13;;;5.65;;
40997;SDS011;26740;45.944;12.480;2022-11-10T11:02:26;8.40;;;5.47;;
40997;SDS011;26740;45.944;12.480;2022-11-10T11:05:10;10.48;;;5.45;;
40997;SDS011;26740;45.944;12.480;2022-11-10T11:07:38;5.60;;;4.72;;
40997;SDS011;26740;45.944;12.480;2022-11-10T11:10:17;6.70;;;4.53;;
40997;SDS011;26740;45.944;12.480;2022-11-10T11:12:48;4.05;;;3.55;;
40997;SDS011;26740;45.944;12.480;2022-11-10T11:15:21;6.28;;;3.97;;
40997;SDS011;26740;45.944;12.480;2022-11-10T11:18:02;6.57;;;3.25;;
40997;SDS011;26740;45.944;12.480;2022-11-10T11:21:05;4.00;;;3.28;;
40997;SDS011;26740;45.944;12.480;2022-11-10T11:37:06;4.05;;;3.05;;
40997;SDS011;26740;45.944;12.480;2022-11-10T11:42:24;4.22;;;2.33;;
40997;SDS011;26740;45.944;12.480;2022-11-10T11:44:59;2.85;;;2.22;;
40997;SDS011;26740;45.944;12.480;2022-11-10T11:47:52;4.05;;;2.47;;
40997;SDS011;26740;45.944;12.480;2022-11-10T11:58:57;1.80;;;1.08;;
40997;SDS011;26740;45.944;12.480;2022-11-10T12:12:59;3.10;;;0.90;;
40997;SDS011;26740;45.944;12.480;2022-11-10T12:32:20;2.83;;;0.38;;
40997;SDS011;26740;45.944;12.480;2022-11-10T12:34:55;0.90;;;0.30;;
40997;SDS011;26740;45.944;12.480;2022-11-10T12:40:21;0.60;;;0.30;;
40997;SDS011;26740;45.944;12.480;2022-11-10T12:42:57;0.35;;;0.20;;
40997;SDS011;26740;45.944;12.480;2022-11-10T12:47:53;0.50;;;0.30;;
40997;SDS011;26740;45.944;12.480;2022-11-10T12:53:50;4.50;;;0.40;;
40997;SDS011;26740;45.944;12.480;2022-11-10T12:56:00;0.40;;;0.13;;
40997;SDS011;26740;45.944;12.480;2022-11-10T12:58:32;0.50;;;0.28;;
40997;SDS011;26740;45.944;12.480;2022-11-10T13:00:59;0.43;;;0.20;;
40997;SDS011;26740;45.944;12.480;2022-11-10T13:03:29;0.68;;;0.22;;
40997;SDS011;26740;45.944;12.480;2022-11-10T13:06:00;1.25;;;0.17;;
40997;SDS011;26740;45.944;12.480;2022-11-10T13:08:29;1.40;;;0.30;;
40997;SDS011;26740;45.944;12.480;2022-11-10T13:11:19;0.22;;;0.10;;
40997;SDS011;26740;45.944;12.480;2022-11-10T13:14:01;3.15;;;0.10;;
40997;SDS011;26740;45.944;12.480;2022-11-10T13:19:09;0.20;;;0.00;;
40997;SDS011;26740;45.944;12.480;2022-11-10T13:24:34;1.13;;;0.00;;
40997;SDS011;26740;45.944;12.480;2022-11-10T13:27:11;0.20;;;0.00;;
40997;SDS011;26740;45.944;12.480;2022-11-10T13:29:57;0.93;;;0.20;;
40997;SDS011;26740;45.944;12.480;2022-11-10T13:34:51;1.00;;;0.10;;
40997;SDS011;26740;45.944;12.480;2022-11-10T13:40:41;0.20;;;0.00;;
40997;SDS011;26740;45.944;12.480;2022-11-10T13:45:41;3.45;;;0.10;;
40997;SDS011;26740;45.944;12.480;2022-11-10T13:58:34;0.10;;;0.00;;
40997;SDS011;26740;45.944;12.480;2022-11-10T14:09:02;0.20;;;0.00;;
40997;SDS011;26740;45.944;12.480;2022-11-10T14:11:35;0.57;;;0.10;;
40997;SDS011;26740;45.944;12.480;2022-11-10T14:16:42;0.13;;;0.00;;
40997;SDS011;26740;45.944;12.480;2022-11-10T14:21:55;0.30;;;0.10;;
40997;SDS011;26740;45.944;12.480;2022-11-10T14:26:50;0.43;;;0.20;;
40997;SDS011;26740;45.944;12.480;2022-11-10T14:29:28;0.68;;;0.25;;
40997;SDS011;26740;45.944;12.480;2022-11-10T14:32:03;0.08;;;0.03;;
40997;SDS011;26740;45.944;12.480;2022-11-10T14:34:48;0.60;;;0.13;;
40997;SDS011;26740;45.944;12.480;2022-11-10T14:37:19;0.55;;;0.10;;
40997;SDS011;26740;45.944;12.480;2022-11-10T14:39:47;0.63;;;0.10;;
40997;SDS011;26740;45.944;12.480;2022-11-10T14:42:23;0.00;;;0.00;;
40997;SDS011;26740;45.944;12.480;2022-11-10T14:47:42;0.38;;;0.03;;
40997;SDS011;26740;45.944;12.480;2022-11-10T14:52:40;0.95;;;0.10;;
40997;SDS011;26740;45.944;12.480;2022-11-10T14:55:29;0.63;;;0.20;;
40997;SDS011;26740;45.944;12.480;2022-11-10T14:58:19;0.93;;;0.20;;
40997;SDS011;26740;45.944;12.480;2022-11-10T15:00:47;0.57;;;0.20;;
40997;SDS011;26740;45.944;12.480;2022-11-10T15:03:15;0.25;;;0.10;;
40997;SDS011;26740;45.944;12.480;2022-11-10T15:05:46;0.68;;;0.10;;
40997;SDS011;26740;45.944;12.480;2022-11-10T15:08:13;0.55;;;0.10;;
40997;SDS011;26740;45.944;12.480;2022-11-10T15:15:51;0.65;;;0.20;;
40997;SDS011;26740;45.944;12.480;2022-11-10T15:21:03;0.70;;;0.20;;
40997;SDS011;26740;45.944;12.480;2022-11-10T15:23:31;0.80;;;0.20;;
40997;SDS011;26740;45.944;12.480;2022-11-10T15:26:01;0.80;;;0.40;;
40997;SDS011;26740;45.944;12.480;2022-11-10T15:28:31;3.55;;;0.30;;
40997;SDS011;26740;45.944;12.480;2022-11-10T15:31:00;0.93;;;0.30;;
40997;SDS011;26740;45.944;12.480;2022-11-10T15:33:27;1.80;;;0.28;;
40997;SDS011;26740;45.944;12.480;2022-11-10T15:36:12;1.30;;;0.40;;
40997;SDS011;26740;45.944;12.480;2022-11-10T15:38:40;0.95;;;0.22;;
40997;SDS011;26740;45.944;12.480;2022-11-10T15:41:09;1.25;;;0.35;;
40997;SDS011;26740;45.944;12.480;2022-11-10T15:43:40;0.90;;;0.40;;
40997;SDS011;26740;45.944;12.480;2022-11-10T15:46:13;1.27;;;0.47;;
40997;SDS011;26740;45.944;12.480;2022-11-10T15:48:45;1.75;;;0.25;;
40997;SDS011;26740;45.944;12.480;2022-11-10T15:51:14;1.48;;;0.30;;
40997;SDS011;26740;45.944;12.480;2022-11-10T15:53:45;0.80;;;0.40;;
40997;SDS011;26740;45.944;12.480;2022-11-10T15:58:45;5.15;;;0.80;;
40997;SDS011;26740;45.944;12.480;2022-11-10T16:01:18;7.82;;;1.88;;
40997;SDS011;26740;45.944;12.480;2022-11-10T16:03:45;4.68;;;1.45;;
40997;SDS011;26740;45.944;12.480;2022-11-10T16:06:11;1.70;;;0.82;;
40997;SDS011;26740;45.944;12.480;2022-11-10T16:08:39;3.75;;;1.25;;
40997;SDS011;26740;45.944;12.480;2022-11-10T16:11:08;2.25;;;1.27;;
40997;SDS011;26740;45.944;12.480;2022-11-10T16:13:45;3.55;;;3.03;;
40997;SDS011;26740;45.944;12.480;2022-11-10T16:16:13;5.28;;;1.73;;
40997;SDS011;26740;45.944;12.480;2022-11-10T16:18:41;6.90;;;2.20;;
40997;SDS011;26740;45.944;12.480;2022-11-10T16:21:25;5.32;;;2.05;;
40997;SDS011;26740;45.944;12.480;2022-11-10T16:23:52;4.47;;;2.60;;
40997;SDS011;26740;45.944;12.480;2022-11-10T16:26:21;7.00;;;4.63;;
40997;SDS011;26740;45.944;12.480;2022-11-10T16:28:50;7.95;;;3.90;;
40997;SDS011;26740;45.944;12.480;2022-11-10T16:31:18;7.32;;;4.15;;
40997;SDS011;26740;45.944;12.480;2022-11-10T16:33:46;7.60;;;4.07;;
40997;SDS011;26740;45.944;12.480;2022-11-10T16:36:23;9.25;;;3.97;;
40997;SDS011;26740;45.944;12.480;2022-11-10T16:38:51;5.75;;;3.53;;
40997;SDS011;26740;45.944;12.480;2022-11-10T16:41:17;5.72;;;3.28;;
40997;SDS011;26740;45.944;12.480;2022-11-10T16:43:43;8.27;;;3.80;;
40997;SDS011;26740;45.944;12.480;2022-11-10T16:46:16;7.60;;;4.45;;
40997;SDS011;26740;45.944;12.480;2022-11-10T16:48:47;11.68;;;5.30;;
40997;SDS011;26740;45.944;12.480;2022-11-10T16:51:29;8.70;;;4.47;;
40997;SDS011;26740;45.944;12.480;2022-11-10T16:53:58;9.10;;;4.55;;
40997;SDS011;26740;45.944;12.480;2022-11-10T16:56:23;7.88;;;4.95;;